KSET

St Charles County Smartt Airport

St Charles, Missouri, USA
METAR KSET 212154Z AUTO 29009KT 10SM FEW042 BKN090 27/18 A2968 RMK AO2 SLP045 T02720178
Observed Flight Rules
Jun-21 @ 21:54 UTC (12 minutes ago) Visual Flight Rules
Wind Visibility Clouds
290° at 9 knots 10 miles
  • Few at 4,200' AGL
  • Broken at 9,000' AGL
Temperatures Readings
Current 27°C / 81°F
Dewpoint 18°C / 64°F
Humidity 58%
Altimeter 29.68" Hg
Pressure 1004.5 hPa
Elevation 134
METAR KSET 212154Z AUTO 29009KT 10SM FEW042 BKN090 27/18 A2968 RMK AO2 SLP045 T02720178
Observed Flight Rules
Jun-21 @ 21:54 UTC
(12 minutes ago)
VFR
Wind Visibility
290° at 9 knots 10 miles
Clouds
  • Few at 4,200' AGL
  • Broken at 9,000' AGL
Temperature Dewpoint
27°C / 81°F 18°C / 64°F
Humidity Altimeter Pressure
58% 29.68" Hg 1004.5 hPa